sensor_id;sensor_type;location;lat;lon;timestamp;pressure;altitude;pressure_sealevel;temperature;humidity
64889;BME280;51386;53.082;8.816;2023-04-02T00:02:29;101398.56;;;8.35;50.31
64889;BME280;51386;53.082;8.816;2023-04-02T00:05:29;101397.88;;;8.33;50.81
64889;BME280;51386;53.082;8.816;2023-04-02T00:07:59;101393.31;;;8.35;50.42
64889;BME280;51386;53.082;8.816;2023-04-02T00:10:31;101404.53;;;8.37;50.96
64889;BME280;51386;53.082;8.816;2023-04-02T00:13:03;101413.63;;;8.33;50.62
64889;BME280;51386;53.082;8.816;2023-04-02T00:15:32;101412.28;;;8.29;50.56
64889;BME280;51386;53.082;8.816;2023-04-02T00:18:03;101420.13;;;8.19;50.73
64889;BME280;51386;53.082;8.816;2023-04-02T00:20:35;101428.03;;;8.09;50.94
64889;BME280;51386;53.082;8.816;2023-04-02T00:23:06;101430.91;;;8.06;51.30
64889;BME280;51386;53.082;8.816;2023-04-02T00:25:36;101430.91;;;8.06;51.17
64889;BME280;51386;53.082;8.816;2023-04-02T00:28:13;101440.16;;;8.10;51.36
64889;BME280;51386;53.082;8.816;2023-04-02T00:30:47;101437.81;;;8.07;51.38
64889;BME280;51386;53.082;8.816;2023-04-02T00:33:19;101447.88;;;8.12;51.40
64889;BME280;51386;53.082;8.816;2023-04-02T00:35:49;101448.72;;;8.12;51.11
64889;BME280;51386;53.082;8.816;2023-04-02T00:38:23;101449.25;;;8.16;51.61
64889;BME280;51386;53.082;8.816;2023-04-02T00:40:51;101454.38;;;8.17;51.08
64889;BME280;51386;53.082;8.816;2023-04-02T00:43:22;101454.22;;;8.19;51.17
64889;BME280;51386;53.082;8.816;2023-04-02T00:45:56;101460.56;;;8.16;50.98
64889;BME280;51386;53.082;8.816;2023-04-02T00:48:39;101468.03;;;8.11;50.72
64889;BME280;51386;53.082;8.816;2023-04-02T00:51:15;101471.34;;;8.04;50.71
64889;BME280;51386;53.082;8.816;2023-04-02T00:53:45;101473.00;;;7.95;51.14
64889;BME280;51386;53.082;8.816;2023-04-02T00:56:18;101480.63;;;7.89;51.29
64889;BME280;51386;53.082;8.816;2023-04-02T00:58:54;101484.03;;;7.89;51.66
64889;BME280;51386;53.082;8.816;2023-04-02T01:01:26;101481.56;;;7.88;51.18
64889;BME280;51386;53.082;8.816;2023-04-02T01:03:58;101484.34;;;7.86;51.64
64889;BME280;51386;53.082;8.816;2023-04-02T01:06:30;101486.97;;;7.86;51.56
64889;BME280;51386;53.082;8.816;2023-04-02T01:09:16;101496.75;;;7.84;51.83
64889;BME280;51386;53.082;8.816;2023-04-02T01:12:10;101489.84;;;7.83;51.67
64889;BME280;51386;53.082;8.816;2023-04-02T01:14:49;101494.00;;;7.86;51.69
64889;BME280;51386;53.082;8.816;2023-04-02T01:17:36;101497.44;;;7.86;51.36
64889;BME280;51386;53.082;8.816;2023-04-02T01:20:42;101504.63;;;7.84;51.71
64889;BME280;51386;53.082;8.816;2023-04-02T01:23:23;101502.53;;;7.88;51.22
64889;BME280;51386;53.082;8.816;2023-04-02T01:26:00;101511.50;;;7.76;51.46
64889;BME280;51386;53.082;8.816;2023-04-02T01:28:45;101522.13;;;7.74;51.73
64889;BME280;51386;53.082;8.816;2023-04-02T01:31:16;101516.72;;;7.66;51.45
64889;BME280;51386;53.082;8.816;2023-04-02T01:33:43;101526.09;;;7.69;51.96
64889;BME280;51386;53.082;8.816;2023-04-02T01:36:17;101532.88;;;7.71;51.75
64889;BME280;51386;53.082;8.816;2023-04-02T01:38:59;101544.72;;;7.75;51.85
64889;BME280;51386;53.082;8.816;2023-04-02T01:41:36;101543.09;;;7.84;51.35
64889;BME280;51386;53.082;8.816;2023-04-02T01:44:09;101538.13;;;7.90;51.22
64889;BME280;51386;53.082;8.816;2023-04-02T01:46:41;101544.63;;;7.96;51.53
64889;BME280;51386;53.082;8.816;2023-04-02T01:49:13;101558.13;;;8.01;50.92
64889;BME280;51386;53.082;8.816;2023-04-02T01:51:44;101554.00;;;7.98;50.70
64889;BME280;51386;53.082;8.816;2023-04-02T01:54:14;101563.50;;;7.99;50.63
64889;BME280;51386;53.082;8.816;2023-04-02T01:56:44;101571.50;;;7.98;50.55
64889;BME280;51386;53.082;8.816;2023-04-02T01:59:19;101568.63;;;8.01;50.61
64889;BME280;51386;53.082;8.816;2023-04-02T02:01:53;101568.06;;;7.97;50.36
64889;BME280;51386;53.082;8.816;2023-04-02T02:04:22;101571.25;;;8.01;50.24
64889;BME280;51386;53.082;8.816;2023-04-02T02:06:50;101580.91;;;8.00;50.45
64889;BME280;51386;53.082;8.816;2023-04-02T02:09:22;101577.28;;;8.01;50.62
64889;BME280;51386;53.082;8.816;2023-04-02T02:11:50;101583.38;;;8.02;50.73
64889;BME280;51386;53.082;8.816;2023-04-02T02:14:22;101594.00;;;8.00;50.18
64889;BME280;51386;53.082;8.816;2023-04-02T02:16:52;101586.66;;;7.94;50.40
64889;BME280;51386;53.082;8.816;2023-04-02T02:19:28;101606.41;;;7.98;50.35
64889;BME280;51386;53.082;8.816;2023-04-02T02:22:12;101617.56;;;7.91;49.75
64889;BME280;51386;53.082;8.816;2023-04-02T02:24:44;101614.25;;;7.89;50.50
64889;BME280;51386;53.082;8.816;2023-04-02T02:27:46;101622.78;;;7.81;50.33
64889;BME280;51386;53.082;8.816;2023-04-02T02:30:23;101628.19;;;7.89;50.60
64889;BME280;51386;53.082;8.816;2023-04-02T02:33:02;101634.00;;;7.93;50.43
64889;BME280;51386;53.082;8.816;2023-04-02T02:35:38;101639.38;;;7.91;50.17
64889;BME280;51386;53.082;8.816;2023-04-02T02:38:48;101643.75;;;7.81;50.09
64889;BME280;51386;53.082;8.816;2023-04-02T02:41:25;101649.25;;;7.78;50.15
64889;BME280;51386;53.082;8.816;2023-04-02T02:44:03;101648.81;;;7.73;50.26
64889;BME280;51386;53.082;8.816;2023-04-02T02:46:37;101656.16;;;7.70;50.08
64889;BME280;51386;53.082;8.816;2023-04-02T02:49:06;101658.88;;;7.68;50.75
64889;BME280;51386;53.082;8.816;2023-04-02T02:51:43;101670.84;;;7.61;50.41
64889;BME280;51386;53.082;8.816;2023-04-02T02:54:13;101676.22;;;7.60;50.39
64889;BME280;51386;53.082;8.816;2023-04-02T02:56:46;101674.84;;;7.56;50.76
64889;BME280;51386;53.082;8.816;2023-04-02T02:59:16;101674.53;;;7.49;50.19
64889;BME280;51386;53.082;8.816;2023-04-02T03:01:46;101685.84;;;7.49;50.92
64889;BME280;51386;53.082;8.816;2023-04-02T03:04:19;101681.69;;;7.47;50.83
64889;BME280;51386;53.082;8.816;2023-04-02T03:06:51;101692.16;;;7.47;50.95
64889;BME280;51386;53.082;8.816;2023-04-02T03:09:30;101688.16;;;7.43;50.77
64889;BME280;51386;53.082;8.816;2023-04-02T03:12:10;101703.44;;;7.38;50.78
64889;BME280;51386;53.082;8.816;2023-04-02T03:14:52;101703.69;;;7.35;51.24
64889;BME280;51386;53.082;8.816;2023-04-02T03:17:31;101704.22;;;7.29;51.17
64889;BME280;51386;53.082;8.816;2023-04-02T03:20:05;101711.63;;;7.24;51.36
64889;BME280;51386;53.082;8.816;2023-04-02T03:22:43;101703.63;;;7.25;51.19
64889;BME280;51386;53.082;8.816;2023-04-02T03:25:27;101719.22;;;7.27;51.37
64889;BME280;51386;53.082;8.816;2023-04-02T03:28:02;101720.84;;;7.28;51.66
64889;BME280;51386;53.082;8.816;2023-04-02T03:30:40;101719.91;;;7.29;51.12
64889;BME280;51386;53.082;8.816;2023-04-02T03:33:16;101731.78;;;7.33;51.38
64889;BME280;51386;53.082;8.816;2023-04-02T03:35:57;101727.94;;;7.37;51.07
64889;BME280;51386;53.082;8.816;2023-04-02T03:38:29;101735.03;;;7.46;51.16
64889;BME280;51386;53.082;8.816;2023-04-02T03:41:04;101748.44;;;7.53;50.92
64889;BME280;51386;53.082;8.816;2023-04-02T03:43:38;101749.00;;;7.56;51.04
64889;BME280;51386;53.082;8.816;2023-04-02T03:46:21;101753.72;;;7.62;51.11
64889;BME280;51386;53.082;8.816;2023-04-02T03:48:56;101760.59;;;7.63;50.12
64889;BME280;51386;53.082;8.816;2023-04-02T03:51:29;101755.66;;;7.60;50.35
64889;BME280;51386;53.082;8.816;2023-04-02T03:53:59;101764.47;;;7.59;49.97
64889;BME280;51386;53.082;8.816;2023-04-02T03:56:29;101771.63;;;7.57;50.48
64889;BME280;51386;53.082;8.816;2023-04-02T03:59:08;101772.56;;;7.56;50.41
64889;BME280;51386;53.082;8.816;2023-04-02T04:01:45;101784.72;;;7.57;50.60
64889;BME280;51386;53.082;8.816;2023-04-02T04:04:18;101789.25;;;7.55;50.09
64889;BME280;51386;53.082;8.816;2023-04-02T04:06:50;101788.94;;;7.48;50.67
64889;BME280;51386;53.082;8.816;2023-04-02T04:09:24;101802.69;;;7.41;50.65
64889;BME280;51386;53.082;8.816;2023-04-02T04:12:07;101806.78;;;7.34;50.53
64889;BME280;51386;53.082;8.816;2023-04-02T04:14:39;101806.78;;;7.34;50.94
64889;BME280;51386;53.082;8.816;2023-04-02T04:17:15;101814.72;;;7.32;50.72
64889;BME280;51386;53.082;8.816;2023-04-02T04:19:57;101813.56;;;7.25;50.92
64889;BME280;51386;53.082;8.816;2023-04-02T04:22:28;101816.34;;;7.24;50.61
64889;BME280;51386;53.082;8.816;2023-04-02T04:25:02;101826.81;;;7.24;50.74
64889;BME280;51386;53.082;8.816;2023-04-02T04:27:36;101824.06;;;7.25;51.00
64889;BME280;51386;53.082;8.816;2023-04-02T04:30:20;101840.84;;;7.23;50.83
64889;BME280;51386;53.082;8.816;2023-04-02T04:32:55;101846.16;;;7.32;51.47
64889;BME280;51386;53.082;8.816;2023-04-02T04:35:29;101845.53;;;7.40;51.35
64889;BME280;51386;53.082;8.816;2023-04-02T04:38:03;101853.97;;;7.43;50.90
64889;BME280;51386;53.082;8.816;2023-04-02T04:40:40;101856.47;;;7.45;50.24
64889;BME280;51386;53.082;8.816;2023-04-02T04:43:17;101854.34;;;7.39;50.44
64889;BME280;51386;53.082;8.816;2023-04-02T04:45:52;101863.78;;;7.30;50.63
64889;BME280;51386;53.082;8.816;2023-04-02T04:48:26;101872.00;;;7.26;50.56
64889;BME280;51386;53.082;8.816;2023-04-02T04:51:00;101876.09;;;7.19;50.68
64889;BME280;51386;53.082;8.816;2023-04-02T04:53:30;101871.38;;;7.13;51.20
64889;BME280;51386;53.082;8.816;2023-04-02T04:56:00;101879.22;;;7.13;51.42
64889;BME280;51386;53.082;8.816;2023-04-02T04:58:49;101880.88;;;7.14;51.21
64889;BME280;51386;53.082;8.816;2023-04-02T05:01:23;101885.16;;;7.15;50.82
64889;BME280;51386;53.082;8.816;2023-04-02T05:04:00;101892.75;;;7.18;51.24
64889;BME280;51386;53.082;8.816;2023-04-02T05:06:38;101896.31;;;7.17;51.12
64889;BME280;51386;53.082;8.816;2023-04-02T05:09:17;101902.13;;;7.20;50.96
64889;BME280;51386;53.082;8.816;2023-04-02T05:11:57;101912.50;;;7.22;50.89
64889;BME280;51386;53.082;8.816;2023-04-02T05:14:34;101921.81;;;7.15;50.86
64889;BME280;51386;53.082;8.816;2023-04-02T05:17:08;101924.78;;;7.10;50.60
64889;BME280;51386;53.082;8.816;2023-04-02T05:19:44;101932.75;;;7.09;51.10
64889;BME280;51386;53.082;8.816;2023-04-02T05:22:25;101941.56;;;7.08;50.70
64889;BME280;51386;53.082;8.816;2023-04-02T05:25:11;101941.56;;;7.08;50.76
64889;BME280;51386;53.082;8.816;2023-04-02T05:27:47;101946.53;;;7.11;50.31
64889;BME280;51386;53.082;8.816;2023-04-02T05:30:41;101955.69;;;7.16;50.64
64889;BME280;51386;53.082;8.816;2023-04-02T05:33:22;101964.25;;;7.29;50.61
64889;BME280;51386;53.082;8.816;2023-04-02T05:35:57;101964.22;;;7.40;51.12
64889;BME280;51386;53.082;8.816;2023-04-02T05:38:31;101973.38;;;7.46;49.96
64889;BME280;51386;53.082;8.816;2023-04-02T05:41:02;101970.69;;;7.57;49.76
64889;BME280;51386;53.082;8.816;2023-04-02T05:43:32;101979.88;;;7.63;49.60
64889;BME280;51386;53.082;8.816;2023-04-02T05:46:05;101987.34;;;7.67;49.64
64889;BME280;51386;53.082;8.816;2023-04-02T05:48:38;101984.09;;;7.75;49.36
64889;BME280;51386;53.082;8.816;2023-04-02T05:51:15;101993.00;;;7.83;49.09
64889;BME280;51386;53.082;8.816;2023-04-02T05:53:51;101996.78;;;7.90;49.12
64889;BME280;51386;53.082;8.816;2023-04-02T05:56:24;102002.34;;;7.97;48.51
64889;BME280;51386;53.082;8.816;2023-04-02T05:58:56;102012.13;;;7.95;48.41
64889;BME280;51386;53.082;8.816;2023-04-02T06:01:36;102013.13;;;8.03;48.69
64889;BME280;51386;53.082;8.816;2023-04-02T06:04:14;102019.56;;;8.10;48.32
64889;BME280;51386;53.082;8.816;2023-04-02T06:06:55;102020.25;;;8.12;47.92
64889;BME280;51386;53.082;8.816;2023-04-02T06:09:35;102027.16;;;8.13;48.23
64889;BME280;51386;53.082;8.816;2023-04-02T06:12:18;102030.94;;;8.20;48.07
64889;BME280;51386;53.082;8.816;2023-04-02T06:14:48;102036.41;;;8.29;48.03
64889;BME280;51386;53.082;8.816;2023-04-02T06:17:17;102034.00;;;8.37;47.77
64889;BME280;51386;53.082;8.816;2023-04-02T06:19:46;102046.34;;;8.46;47.35
64889;BME280;51386;53.082;8.816;2023-04-02T06:22:25;102040.13;;;8.47;46.89
64889;BME280;51386;53.082;8.816;2023-04-02T06:25:04;102055.91;;;8.56;47.14
64889;BME280;51386;53.082;8.816;2023-04-02T06:27:34;102060.31;;;8.56;46.99
64889;BME280;51386;53.082;8.816;2023-04-02T06:30:05;102069.34;;;8.63;46.72
64889;BME280;51386;53.082;8.816;2023-04-02T06:32:36;102067.06;;;8.69;46.89
64889;BME280;51386;53.082;8.816;2023-04-02T06:35:05;102072.22;;;8.80;46.28
64889;BME280;51386;53.082;8.816;2023-04-02T06:37:35;102083.41;;;8.82;46.55
64889;BME280;51386;53.082;8.816;2023-04-02T06:40:28;102084.00;;;8.86;45.94
64889;BME280;51386;53.082;8.816;2023-04-02T06:43:05;102087.78;;;8.93;45.44
64889;BME280;51386;53.082;8.816;2023-04-02T06:45:40;102094.41;;;8.97;45.68
64889;BME280;51386;53.082;8.816;2023-04-02T06:48:15;102088.06;;;9.00;45.67
64889;BME280;51386;53.082;8.816;2023-04-02T06:50:47;102096.25;;;9.06;45.64
64889;BME280;51386;53.082;8.816;2023-04-02T06:53:22;102099.06;;;9.14;45.55
64889;BME280;51386;53.082;8.816;2023-04-02T06:56:00;102098.81;;;9.17;45.22
64889;BME280;51386;53.082;8.816;2023-04-02T06:58:29;102099.06;;;9.14;45.11
64889;BME280;51386;53.082;8.816;2023-04-02T07:00:56;102101.16;;;9.20;45.31
64889;BME280;51386;53.082;8.816;2023-04-02T07:03:27;102110.44;;;9.24;45.30
64889;BME280;51386;53.082;8.816;2023-04-02T07:05:56;102111.03;;;9.37;45.31
64889;BME280;51386;53.082;8.816;2023-04-02T07:08:23;102118.03;;;9.58;44.80
64889;BME280;51386;53.082;8.816;2023-04-02T07:10:53;102120.81;;;9.66;44.22
64889;BME280;51386;53.082;8.816;2023-04-02T07:13:23;102133.28;;;9.73;43.91
64889;BME280;51386;53.082;8.816;2023-04-02T07:15:52;102133.59;;;9.89;44.11
64889;BME280;51386;53.082;8.816;2023-04-02T07:18:27;102138.34;;;10.05;43.30
64889;BME280;51386;53.082;8.816;2023-04-02T07:20:55;102139.34;;;10.13;43.46
64889;BME280;51386;53.082;8.816;2023-04-02T07:23:22;102152.38;;;10.34;43.99
64889;BME280;51386;53.082;8.816;2023-04-02T07:25:53;102157.50;;;10.64;42.53
64889;BME280;51386;53.082;8.816;2023-04-02T07:28:21;102146.97;;;10.74;41.71
64889;BME280;51386;53.082;8.816;2023-04-02T07:30:50;102156.47;;;10.94;41.66
64889;BME280;51386;53.082;8.816;2023-04-02T07:33:20;102159.09;;;11.04;41.44
64889;BME280;51386;53.082;8.816;2023-04-02T07:35:49;102161.56;;;11.24;40.68
64889;BME280;51386;53.082;8.816;2023-04-02T07:38:16;102161.78;;;11.40;40.93
64889;BME280;51386;53.082;8.816;2023-04-02T07:40:43;102157.50;;;11.67;39.64
64889;BME280;51386;53.082;8.816;2023-04-02T07:43:12;102167.78;;;12.14;39.95
64889;BME280;51386;53.082;8.816;2023-04-02T07:45:39;102173.97;;;12.58;39.07
64889;BME280;51386;53.082;8.816;2023-04-02T07:48:08;102172.75;;;12.88;38.83
64889;BME280;51386;53.082;8.816;2023-04-02T07:50:36;102173.03;;;13.28;37.91
64889;BME280;51386;53.082;8.816;2023-04-02T07:53:04;102175.00;;;13.60;36.70
64889;BME280;51386;53.082;8.816;2023-04-02T07:55:32;102183.34;;;14.31;36.44
64889;BME280;51386;53.082;8.816;2023-04-02T07:58:00;102184.00;;;15.22;35.11
64889;BME280;51386;53.082;8.816;2023-04-02T08:00:28;102192.84;;;16.08;33.39
64889;BME280;51386;53.082;8.816;2023-04-02T08:02:55;102191.88;;;16.77;31.45
64889;BME280;51386;53.082;8.816;2023-04-02T08:05:23;102194.00;;;17.48;30.49
64889;BME280;51386;53.082;8.816;2023-04-02T08:07:54;102192.94;;;18.07;29.24
64889;BME280;51386;53.082;8.816;2023-04-02T08:10:23;102188.19;;;18.60;28.84
64889;BME280;51386;53.082;8.816;2023-04-02T08:12:50;102197.38;;;19.34;28.16
64889;BME280;51386;53.082;8.816;2023-04-02T08:15:17;102196.38;;;19.69;27.08
64889;BME280;51386;53.082;8.816;2023-04-02T08:17:46;102209.63;;;19.90;26.07
64889;BME280;51386;53.082;8.816;2023-04-02T08:20:16;102214.84;;;20.11;26.32
64889;BME280;51386;53.082;8.816;2023-04-02T08:22:44;102228.38;;;20.64;25.55
64889;BME280;51386;53.082;8.816;2023-04-02T08:25:12;102236.25;;;21.05;24.97
64889;BME280;51386;53.082;8.816;2023-04-02T08:27:39;102243.63;;;21.35;24.56
64889;BME280;51386;53.082;8.816;2023-04-02T08:30:08;102234.91;;;21.73;24.56
64889;BME280;51386;53.082;8.816;2023-04-02T08:32:38;102240.94;;;22.19;24.11
64889;BME280;51386;53.082;8.816;2023-04-02T08:35:11;102243.44;;;22.83;23.75
64889;BME280;51386;53.082;8.816;2023-04-02T08:37:39;102241.75;;;23.38;21.66
64889;BME280;51386;53.082;8.816;2023-04-02T08:40:20;102245.06;;;23.33;21.79
64889;BME280;51386;53.082;8.816;2023-04-02T08:43:05;102253.25;;;23.45;22.45
64889;BME280;51386;53.082;8.816;2023-04-02T08:45:49;102258.03;;;23.61;22.25
64889;BME280;51386;53.082;8.816;2023-04-02T08:48:21;102249.19;;;23.79;21.90
64889;BME280;51386;53.082;8.816;2023-04-02T08:50:51;102260.38;;;24.42;21.37
64889;BME280;51386;53.082;8.816;2023-04-02T08:53:22;102270.91;;;25.14;21.14
64889;BME280;51386;53.082;8.816;2023-04-02T08:55:56;102261.78;;;25.38;20.15
64889;BME280;51386;53.082;8.816;2023-04-02T08:58:39;102270.44;;;25.17;19.62
64889;BME280;51386;53.082;8.816;2023-04-02T09:01:18;102274.19;;;24.75;19.35
64889;BME280;51386;53.082;8.816;2023-04-02T09:03:49;102276.50;;;24.60;20.23
64889;BME280;51386;53.082;8.816;2023-04-02T09:06:22;102263.69;;;24.44;20.87
64889;BME280;51386;53.082;8.816;2023-04-02T09:08:51;102277.53;;;24.77;21.12
64889;BME280;51386;53.082;8.816;2023-04-02T09:11:24;102286.50;;;25.35;20.07
64889;BME280;51386;53.082;8.816;2023-04-02T09:13:56;102282.72;;;25.83;20.13
64889;BME280;51386;53.082;8.816;2023-04-02T09:16:39;102289.25;;;25.98;19.33
64889;BME280;51386;53.082;8.816;2023-04-02T09:19:20;102281.75;;;26.12;18.97
64889;BME280;51386;53.082;8.816;2023-04-02T09:22:01;102284.31;;;26.18;19.35
64889;BME280;51386;53.082;8.816;2023-04-02T09:24:32;102290.56;;;26.07;19.03
64889;BME280;51386;53.082;8.816;2023-04-02T09:26:59;102285.38;;;26.06;19.38
64889;BME280;51386;53.082;8.816;2023-04-02T09:29:42;102291.84;;;26.16;18.71
64889;BME280;51386;53.082;8.816;2023-04-02T09:32:32;102289.66;;;26.58;18.23
64889;BME280;51386;53.082;8.816;2023-04-02T09:35:11;102305.00;;;26.41;18.38
64889;BME280;51386;53.082;8.816;2023-04-02T09:40:50;102318.56;;;26.58;18.50
64889;BME280;51386;53.082;8.816;2023-04-02T09:43:21;102318.91;;;26.33;17.40
64889;BME280;51386;53.082;8.816;2023-04-02T09:45:59;102317.13;;;25.76;17.96
64889;BME280;51386;53.082;8.816;2023-04-02T09:48:29;102327.81;;;25.59;18.81
64889;BME280;51386;53.082;8.816;2023-04-02T09:51:13;102326.06;;;25.65;18.62
64889;BME280;51386;53.082;8.816;2023-04-02T09:53:42;102322.69;;;26.20;18.21
64889;BME280;51386;53.082;8.816;2023-04-02T09:56:16;102333.16;;;26.85;17.81
64889;BME280;51386;53.082;8.816;2023-04-02T09:58:45;102322.84;;;26.99;17.91
64889;BME280;51386;53.082;8.816;2023-04-02T10:01:30;102323.50;;;27.06;18.10
64889;BME280;51386;53.082;8.816;2023-04-02T10:04:01;102334.06;;;26.91;17.58
64889;BME280;51386;53.082;8.816;2023-04-02T10:06:32;102332.91;;;27.20;17.80
64889;BME280;51386;53.082;8.816;2023-04-02T10:09:19;102333.28;;;27.57;17.04
64889;BME280;51386;53.082;8.816;2023-04-02T10:11:50;102335.63;;;27.36;17.56
64889;BME280;51386;53.082;8.816;2023-04-02T10:14:24;102334.97;;;27.63;17.36
64889;BME280;51386;53.082;8.816;2023-04-02T10:16:57;102338.78;;;28.22;16.99
64889;BME280;51386;53.082;8.816;2023-04-02T10:19:31;102342.53;;;27.99;16.91
64889;BME280;51386;53.082;8.816;2023-04-02T10:22:03;102355.38;;;27.70;16.74
64889;BME280;51386;53.082;8.816;2023-04-02T10:24:34;102356.28;;;27.09;17.01
64889;BME280;51386;53.082;8.816;2023-04-02T10:27:17;102367.75;;;26.32;17.75
64889;BME280;51386;53.082;8.816;2023-04-02T10:30:15;102367.31;;;26.00;17.87
64889;BME280;51386;53.082;8.816;2023-04-02T10:32:49;102373.41;;;26.30;18.71
64889;BME280;51386;53.082;8.816;2023-04-02T10:35:33;102370.75;;;26.86;18.34
64889;BME280;51386;53.082;8.816;2023-04-02T10:38:21;102370.84;;;26.92;18.15
64889;BME280;51386;53.082;8.816;2023-04-02T10:40:57;102366.91;;;26.71;17.40
64889;BME280;51386;53.082;8.816;2023-04-02T10:43:56;102368.63;;;26.49;18.13
64889;BME280;51386;53.082;8.816;2023-04-02T10:46:55;102373.63;;;26.05;17.69
64889;BME280;51386;53.082;8.816;2023-04-02T10:49:34;102379.31;;;25.69;18.43
64889;BME280;51386;53.082;8.816;2023-04-02T10:52:09;102381.22;;;24.86;18.93
64889;BME280;51386;53.082;8.816;2023-04-02T10:54:45;102383.22;;;24.25;19.52
64889;BME280;51386;53.082;8.816;2023-04-02T10:57:33;102388.38;;;24.08;19.97
64889;BME280;51386;53.082;8.816;2023-04-02T11:00:22;102398.47;;;24.12;20.26
64889;BME280;51386;53.082;8.816;2023-04-02T11:02:55;102393.69;;;24.14;20.47
64889;BME280;51386;53.082;8.816;2023-04-02T11:05:32;102405.19;;;24.40;20.33
64889;BME280;51386;53.082;8.816;2023-04-02T11:08:10;102396.88;;;24.59;20.20
64889;BME280;51386;53.082;8.816;2023-04-02T11:10:46;102395.28;;;24.88;20.18
64889;BME280;51386;53.082;8.816;2023-04-02T11:13:21;102414.91;;;24.59;20.31
64889;BME280;51386;53.082;8.816;2023-04-02T11:15:52;102405.47;;;24.13;20.05
64889;BME280;51386;53.082;8.816;2023-04-02T11:18:30;102406.13;;;23.66;20.58
64889;BME280;51386;53.082;8.816;2023-04-02T11:21:05;102409.88;;;23.65;21.06
64889;BME280;51386;53.082;8.816;2023-04-02T11:23:55;102420.00;;;23.32;20.65
64889;BME280;51386;53.082;8.816;2023-04-02T11:26:41;102422.88;;;23.37;20.61
64889;BME280;51386;53.082;8.816;2023-04-02T11:29:32;102420.16;;;24.17;20.15
64889;BME280;51386;53.082;8.816;2023-04-02T11:32:28;102424.38;;;24.98;20.09
64889;BME280;51386;53.082;8.816;2023-04-02T11:37:54;102425.19;;;25.92;18.80
64889;BME280;51386;53.082;8.816;2023-04-02T11:40:47;102412.97;;;26.01;18.22
64889;BME280;51386;53.082;8.816;2023-04-02T11:43:50;102422.72;;;25.91;18.80
64889;BME280;51386;53.082;8.816;2023-04-02T11:46:41;102414.50;;;25.86;18.67
64889;BME280;51386;53.082;8.816;2023-04-02T11:49:38;102422.69;;;25.68;18.79
64889;BME280;51386;53.082;8.816;2023-04-02T11:52:21;102421.06;;;25.25;19.29
64889;BME280;51386;53.082;8.816;2023-04-02T11:55:19;102424.72;;;25.31;19.00
64889;BME280;51386;53.082;8.816;2023-04-02T11:58:34;102417.66;;;25.30;18.89
64889;BME280;51386;53.082;8.816;2023-04-02T12:01:38;102433.16;;;24.57;18.84
64889;BME280;51386;53.082;8.816;2023-04-02T12:04:42;102434.81;;;24.40;19.79
64889;BME280;51386;53.082;8.816;2023-04-02T12:07:46;102439.31;;;24.46;19.45
64889;BME280;51386;53.082;8.816;2023-04-02T12:10:21;102437.28;;;24.59;19.76
64889;BME280;51386;53.082;8.816;2023-04-02T12:12:49;102438.41;;;24.88;19.93
64889;BME280;51386;53.082;8.816;2023-04-02T12:15:40;102434.97;;;25.11;19.81
64889;BME280;51386;53.082;8.816;2023-04-02T12:18:15;102430.84;;;25.08;18.51
64889;BME280;51386;53.082;8.816;2023-04-02T12:20:49;102446.28;;;25.01;18.40
64889;BME280;51386;53.082;8.816;2023-04-02T12:23:23;102448.44;;;24.81;18.72
64889;BME280;51386;53.082;8.816;2023-04-02T12:25:56;102452.31;;;24.67;18.89
64889;BME280;51386;53.082;8.816;2023-04-02T12:28:25;102458.72;;;24.30;18.96
64889;BME280;51386;53.082;8.816;2023-04-02T12:31:04;102448.66;;;23.76;18.94
64889;BME280;51386;53.082;8.816;2023-04-02T12:33:39;102459.03;;;23.72;19.61
64889;BME280;51386;53.082;8.816;2023-04-02T12:36:18;102461.00;;;23.83;19.85
64889;BME280;51386;53.082;8.816;2023-04-02T12:38:48;102460.00;;;24.02;19.73
64889;BME280;51386;53.082;8.816;2023-04-02T12:41:23;102470.59;;;23.73;19.31
64889;BME280;51386;53.082;8.816;2023-04-02T12:43:57;102468.53;;;23.06;19.58
64889;BME280;51386;53.082;8.816;2023-04-02T12:46:25;102471.63;;;22.45;21.02
64889;BME280;51386;53.082;8.816;2023-04-02T12:48:53;102469.81;;;22.13;21.14
64889;BME280;51386;53.082;8.816;2023-04-02T12:51:22;102474.94;;;22.21;20.34
64889;BME280;51386;53.082;8.816;2023-04-02T12:53:51;102471.38;;;22.66;20.84
64889;BME280;51386;53.082;8.816;2023-04-02T12:56:21;102475.00;;;23.36;20.14
64889;BME280;51386;53.082;8.816;2023-04-02T12:58:53;102477.94;;;23.21;20.04
64889;BME280;51386;53.082;8.816;2023-04-02T13:01:22;102476.75;;;23.11;20.12
64889;BME280;51386;53.082;8.816;2023-04-02T13:04:09;102479.38;;;23.62;20.17
64889;BME280;51386;53.082;8.816;2023-04-02T13:06:49;102466.72;;;23.93;19.58
64889;BME280;51386;53.082;8.816;2023-04-02T13:09:30;102475.53;;;24.07;19.81
64889;BME280;51386;53.082;8.816;2023-04-02T13:12:00;102473.41;;;24.34;20.19
64889;BME280;51386;53.082;8.816;2023-04-02T13:14:27;102476.72;;;24.90;19.86
64889;BME280;51386;53.082;8.816;2023-04-02T13:16:55;102473.09;;;25.55;18.63
64889;BME280;51386;53.082;8.816;2023-04-02T13:19:28;102483.25;;;25.42;18.57
64889;BME280;51386;53.082;8.816;2023-04-02T13:21:59;102487.47;;;24.36;19.61
64889;BME280;51386;53.082;8.816;2023-04-02T13:24:28;102491.88;;;23.49;20.45
64889;BME280;51386;53.082;8.816;2023-04-02T13:26:58;102490.03;;;23.06;20.99
64889;BME280;51386;53.082;8.816;2023-04-02T13:29:31;102493.84;;;22.78;20.96
64889;BME280;51386;53.082;8.816;2023-04-02T13:32:01;102493.47;;;22.68;21.24
64889;BME280;51386;53.082;8.816;2023-04-02T13:34:29;102496.38;;;22.60;21.15
64889;BME280;51386;53.082;8.816;2023-04-02T13:36:58;102493.09;;;22.25;20.74
64889;BME280;51386;53.082;8.816;2023-04-02T13:39:25;102495.19;;;22.17;21.00
64889;BME280;51386;53.082;8.816;2023-04-02T13:41:56;102494.25;;;22.82;20.87
64889;BME280;51386;53.082;8.816;2023-04-02T13:44:26;102504.03;;;23.83;20.24
64889;BME280;51386;53.082;8.816;2023-04-02T13:46:55;102494.00;;;24.82;19.41